EAA8460 SBCN-SBLO
Flight info
| Callsign | EAA8460 |
|---|---|
| Flight time | 1h 25m |
| Altitude | 34000 |
| Route | GIDVO DCT KOVAX UM532 GEKEM DCT KOTEG |
| Aircraft | B738/M-SDE2E3FGHIRWXY/LB1 |
Departure
| Time | 2026-05-04 18:45 |
|---|---|
| Airport | Nelson Ribeiro Guimarães Airport (SBCN) |
Arrival
| Time | 2026-05-04 20:10 |
|---|---|
| Airport | Governor José Richa Airport (SBLO) |
| Time | Latitude | Longitude | Altitude | Speed | Heading |
|---|---|---|---|---|---|
| 2026-05-04 18:44 | -17.72794 | -48.61346 | 2311 ft | 0 kts | 68° |
| 2026-05-04 18:44 | -17.72651 | -48.61002 | 2301 ft | 107 kts | 66° |
| 2026-05-04 18:45 | -17.72217 | -48.59969 | 2318 ft | 195 kts | 66° |
| 2026-05-04 18:45 | -17.71664 | -48.58682 | 3631 ft | 190 kts | 66° |
| 2026-05-04 18:45 | -17.71412 | -48.57165 | 4257 ft | 236 kts | 101° |
| 2026-05-04 18:45 | -17.72148 | -48.55598 | 5080 ft | 244 kts | 128° |
| 2026-05-04 18:46 | -17.73429 | -48.54407 | 5877 ft | 251 kts | 151° |
| 2026-05-04 18:46 | -17.75148 | -48.53850 | 6403 ft | 270 kts | 177° |
| 2026-05-04 18:46 | -17.77028 | -48.54177 | 7290 ft | 280 kts | 202° |
| 2026-05-04 18:46 | -17.78661 | -48.55208 | 8524 ft | 279 kts | 218° |
| 2026-05-04 18:47 | -17.80155 | -48.56526 | 9611 ft | 282 kts | 221° |
| 2026-05-04 18:47 | -17.81637 | -48.57913 | 10549 ft | 294 kts | 222° |
| 2026-05-04 18:47 | -17.83250 | -48.59401 | 10884 ft | 325 kts | 221° |
| 2026-05-04 18:47 | -17.85054 | -48.61019 | 11127 ft | 355 kts | 220° |
| 2026-05-04 18:48 | -17.86999 | -48.62735 | 11637 ft | 372 kts | 220° |
| 2026-05-04 18:48 | -17.88994 | -48.64501 | 12477 ft | 377 kts | 221° |
| 2026-05-04 18:48 | -17.90922 | -48.66384 | 13371 ft | 380 kts | 224° |
| 2026-05-04 18:48 | -17.92812 | -48.68351 | 14227 ft | 385 kts | 225° |
| 2026-05-04 18:49 | -17.94706 | -48.70359 | 15052 ft | 390 kts | 225° |
| 2026-05-04 18:49 | -17.96626 | -48.72396 | 15835 ft | 395 kts | 225° |
| 2026-05-04 18:49 | -17.98575 | -48.74454 | 15974 ft | 399 kts | 226° |
| 2026-05-04 18:49 | -18.00546 | -48.76524 | 16545 ft | 404 kts | 226° |
| 2026-05-04 18:50 | -18.02550 | -48.78620 | 17111 ft | 408 kts | 226° |
| 2026-05-04 18:50 | -18.04566 | -48.80722 | 17752 ft | 410 kts | 226° |
| 2026-05-04 18:50 | -18.06602 | -48.82843 | 18297 ft | 414 kts | 226° |
| 2026-05-04 18:50 | -18.08653 | -48.84978 | 18816 ft | 416 kts | 225° |
| 2026-05-04 18:51 | -18.10713 | -48.87123 | 19339 ft | 417 kts | 225° |
| 2026-05-04 18:51 | -18.12779 | -48.89275 | 19887 ft | 419 kts | 225° |
| 2026-05-04 18:51 | -18.14852 | -48.91436 | 20398 ft | 421 kts | 225° |
| 2026-05-04 18:51 | -18.16936 | -48.93607 | 20890 ft | 423 kts | 225° |
| 2026-05-04 18:52 | -18.19026 | -48.95787 | 21393 ft | 424 kts | 225° |
| 2026-05-04 18:52 | -18.21124 | -48.97976 | 21899 ft | 425 kts | 225° |
| 2026-05-04 18:52 | -18.23226 | -49.00171 | 22394 ft | 427 kts | 225° |
| 2026-05-04 18:52 | -18.25338 | -49.02375 | 22853 ft | 429 kts | 225° |
| 2026-05-04 18:53 | -18.27458 | -49.04590 | 23314 ft | 430 kts | 225° |
| 2026-05-04 18:53 | -18.29585 | -49.06812 | 23720 ft | 432 kts | 225° |
| 2026-05-04 18:53 | -18.31717 | -49.09041 | 24055 ft | 433 kts | 225° |
| 2026-05-04 18:53 | -18.33861 | -49.11283 | 24413 ft | 435 kts | 225° |
| 2026-05-04 18:54 | -18.36009 | -49.13531 | 24753 ft | 436 kts | 225° |
| 2026-05-04 18:54 | -18.38136 | -49.15756 | 25099 ft | 438 kts | 225° |
| 2026-05-04 18:54 | -18.40296 | -49.18019 | 25425 ft | 439 kts | 225° |
| 2026-05-04 18:54 | -18.42469 | -49.20293 | 25764 ft | 440 kts | 225° |
| 2026-05-04 18:55 | -18.44646 | -49.22567 | 26079 ft | 442 kts | 225° |
| 2026-05-04 18:55 | -18.49210 | -49.26952 | 26758 ft | 444 kts | 223° |
| 2026-05-04 18:55 | -18.51525 | -49.29095 | 27219 ft | 442 kts | 223° |
| 2026-05-04 18:56 | -18.53824 | -49.31227 | 27753 ft | 439 kts | 223° |
| 2026-05-04 18:56 | -18.56101 | -49.33355 | 28277 ft | 436 kts | 223° |
| 2026-05-04 18:56 | -18.58361 | -49.35481 | 28795 ft | 434 kts | 224° |
| 2026-05-04 18:56 | -18.60609 | -49.37606 | 29284 ft | 433 kts | 224° |
| 2026-05-04 18:57 | -18.62844 | -49.39724 | 29808 ft | 432 kts | 224° |
| 2026-05-04 18:57 | -18.65071 | -49.41837 | 30333 ft | 429 kts | 224° |
| 2026-05-04 18:57 | -18.67288 | -49.43940 | 30850 ft | 426 kts | 224° |
| 2026-05-04 18:57 | -18.69485 | -49.46026 | 31331 ft | 425 kts | 224° |
| 2026-05-04 18:58 | -18.71677 | -49.48107 | 31831 ft | 422 kts | 224° |
| 2026-05-04 18:58 | -18.73821 | -49.50144 | 32374 ft | 419 kts | 224° |
| 2026-05-04 18:58 | -18.75978 | -49.52192 | 32909 ft | 416 kts | 224° |
| 2026-05-04 18:58 | -18.78126 | -49.54234 | 33411 ft | 414 kts | 224° |
| 2026-05-04 18:59 | -18.80262 | -49.56264 | 33909 ft | 412 kts | 224° |
| 2026-05-04 18:59 | -18.82471 | -49.58184 | 34366 ft | 412 kts | 219° |
| 2026-05-04 18:59 | -18.84910 | -49.59765 | 34859 ft | 411 kts | 211° |
| 2026-05-04 18:59 | -18.87430 | -49.61136 | 35408 ft | 406 kts | 211° |
| 2026-05-04 19:00 | -18.89939 | -49.62488 | 35829 ft | 405 kts | 211° |
| 2026-05-04 19:00 | -18.92440 | -49.63839 | 35851 ft | 402 kts | 211° |
| 2026-05-04 19:00 | -18.97403 | -49.66544 | 35888 ft | 403 kts | 212° |
| 2026-05-04 19:01 | -19.02394 | -49.69286 | 35884 ft | 405 kts | 212° |
| 2026-05-04 19:01 | -19.07402 | -49.72044 | 35871 ft | 407 kts | 212° |
| 2026-05-04 19:02 | -19.12431 | -49.74815 | 35886 ft | 408 kts | 212° |
| 2026-05-04 19:02 | -19.17461 | -49.77588 | 35881 ft | 408 kts | 212° |
| 2026-05-04 19:03 | -19.22485 | -49.80360 | 35868 ft | 406 kts | 212° |
| 2026-05-04 19:03 | -19.27453 | -49.83103 | 35868 ft | 405 kts | 212° |
| 2026-05-04 19:04 | -19.32434 | -49.85856 | 35866 ft | 404 kts | 212° |
| 2026-05-04 19:04 | -19.37418 | -49.88582 | 35860 ft | 403 kts | 211° |
| 2026-05-04 19:05 | -19.42423 | -49.91250 | 35866 ft | 402 kts | 211° |
| 2026-05-04 19:05 | -19.47422 | -49.93914 | 35867 ft | 402 kts | 211° |
| 2026-05-04 19:06 | -19.52411 | -49.96582 | 35862 ft | 402 kts | 211° |
| 2026-05-04 19:06 | -19.57406 | -49.99258 | 35859 ft | 402 kts | 211° |
| 2026-05-04 19:07 | -19.62401 | -50.01938 | 35860 ft | 403 kts | 211° |
| 2026-05-04 19:07 | -19.67408 | -50.04626 | 35863 ft | 404 kts | 211° |
| 2026-05-04 19:08 | -19.72429 | -50.07323 | 35854 ft | 404 kts | 211° |
| 2026-05-04 19:08 | -19.77452 | -50.10023 | 35855 ft | 405 kts | 211° |
| 2026-05-04 19:09 | -19.82488 | -50.12732 | 35858 ft | 406 kts | 211° |
| 2026-05-04 19:09 | -19.87492 | -50.15426 | 35861 ft | 406 kts | 211° |
| 2026-05-04 19:10 | -19.92532 | -50.18141 | 35862 ft | 406 kts | 211° |
| 2026-05-04 19:10 | -19.97574 | -50.20860 | 35856 ft | 407 kts | 211° |
| 2026-05-04 19:11 | -20.02614 | -50.23594 | 35857 ft | 407 kts | 211° |
| 2026-05-04 19:11 | -20.07644 | -50.26351 | 35854 ft | 407 kts | 211° |
| 2026-05-04 19:12 | -20.15195 | -50.30475 | 35860 ft | 407 kts | 211° |
| 2026-05-04 19:13 | -20.20236 | -50.33215 | 35860 ft | 407 kts | 211° |
| 2026-05-04 19:13 | -20.25273 | -50.35955 | 35859 ft | 407 kts | 211° |
| 2026-05-04 19:14 | -20.30311 | -50.38699 | 35859 ft | 406 kts | 211° |
| 2026-05-04 19:14 | -20.35341 | -50.41442 | 35860 ft | 406 kts | 211° |
| 2026-05-04 19:15 | -20.40374 | -50.44189 | 35856 ft | 406 kts | 211° |
| 2026-05-04 19:15 | -20.45400 | -50.46934 | 35861 ft | 405 kts | 211° |
| 2026-05-04 19:16 | -20.50417 | -50.49675 | 35858 ft | 405 kts | 211° |
| 2026-05-04 19:16 | -20.55434 | -50.52419 | 35857 ft | 405 kts | 211° |
| 2026-05-04 19:17 | -20.60446 | -50.55163 | 35859 ft | 405 kts | 211° |
| 2026-05-04 19:17 | -20.65430 | -50.57893 | 35853 ft | 405 kts | 211° |
| 2026-05-04 19:18 | -20.70440 | -50.60640 | 35859 ft | 405 kts | 211° |
| 2026-05-04 19:18 | -20.75450 | -50.63389 | 35861 ft | 405 kts | 211° |
| 2026-05-04 19:19 | -20.80451 | -50.66151 | 35855 ft | 404 kts | 212° |
| 2026-05-04 19:19 | -20.85423 | -50.68965 | 35863 ft | 404 kts | 212° |
| 2026-05-04 19:20 | -20.90393 | -50.71788 | 35856 ft | 404 kts | 212° |
| 2026-05-04 19:20 | -20.95360 | -50.74603 | 35865 ft | 404 kts | 212° |
| 2026-05-04 19:21 | -21.00328 | -50.77419 | 35858 ft | 404 kts | 212° |
| 2026-05-04 19:21 | -21.05290 | -50.80233 | 35862 ft | 404 kts | 212° |
| 2026-05-04 19:22 | -21.10255 | -50.83051 | 35867 ft | 403 kts | 212° |
| 2026-05-04 19:22 | -21.15212 | -50.85859 | 35864 ft | 403 kts | 212° |
| 2026-05-04 19:23 | -21.20167 | -50.88657 | 35856 ft | 402 kts | 212° |
| 2026-05-04 19:23 | -21.25117 | -50.91454 | 35869 ft | 402 kts | 212° |
| 2026-05-04 19:24 | -21.30027 | -50.94237 | 35866 ft | 401 kts | 212° |
| 2026-05-04 19:24 | -21.34962 | -50.97039 | 35862 ft | 401 kts | 212° |
| 2026-05-04 19:25 | -21.39892 | -50.99841 | 35866 ft | 401 kts | 212° |
| 2026-05-04 19:25 | -21.44820 | -51.02642 | 35862 ft | 401 kts | 212° |
| 2026-05-04 19:26 | -21.49737 | -51.05453 | 35866 ft | 400 kts | 212° |
| 2026-05-04 19:26 | -21.54642 | -51.08274 | 35869 ft | 400 kts | 212° |
| 2026-05-04 19:27 | -21.59566 | -51.11065 | 35865 ft | 400 kts | 212° |
| 2026-05-04 19:27 | -21.64505 | -51.13816 | 35869 ft | 400 kts | 212° |
| 2026-05-04 19:28 | -21.69435 | -51.16574 | 35870 ft | 399 kts | 212° |
| 2026-05-04 19:28 | -21.74634 | -51.18766 | 35875 ft | 406 kts | 199° |
| 2026-05-04 19:29 | -21.80299 | -51.19592 | 35880 ft | 412 kts | 191° |
| 2026-05-04 19:29 | -21.86014 | -51.20129 | 35871 ft | 412 kts | 191° |
| 2026-05-04 19:30 | -21.91689 | -51.20675 | 35883 ft | 412 kts | 192° |
| 2026-05-04 19:30 | -21.97387 | -51.21246 | 35893 ft | 411 kts | 192° |
| 2026-05-04 19:31 | -22.03081 | -51.21827 | 35906 ft | 410 kts | 192° |
| 2026-05-04 19:31 | -22.08761 | -51.22408 | 35926 ft | 410 kts | 192° |
| 2026-05-04 19:32 | -22.13477 | -51.22891 | 35924 ft | 409 kts | 192° |
| 2026-05-04 19:32 | -22.19181 | -51.23476 | 35929 ft | 409 kts | 192° |
| 2026-05-04 19:33 | -22.24804 | -51.24052 | 35923 ft | 408 kts | 192° |
| 2026-05-04 19:33 | -22.30454 | -51.24632 | 35921 ft | 408 kts | 192° |
| 2026-05-04 19:34 | -22.36102 | -51.25212 | 35910 ft | 408 kts | 192° |
| 2026-05-04 19:34 | -22.41752 | -51.25793 | 35905 ft | 407 kts | 192° |
| 2026-05-04 19:35 | -22.47394 | -51.26373 | 35899 ft | 407 kts | 192° |
| 2026-05-04 19:35 | -22.53033 | -51.26954 | 35895 ft | 407 kts | 192° |
| 2026-05-04 19:36 | -22.58664 | -51.27534 | 35899 ft | 407 kts | 192° |
| 2026-05-04 19:36 | -22.64301 | -51.28115 | 35892 ft | 407 kts | 192° |
| 2026-05-04 19:37 | -22.69993 | -51.28252 | 35902 ft | 416 kts | 181° |
| 2026-05-04 19:37 | -22.75727 | -51.26904 | 35905 ft | 424 kts | 174° |
| 2026-05-04 19:38 | -22.81448 | -51.25355 | 35902 ft | 424 kts | 174° |
| 2026-05-04 19:38 | -22.87169 | -51.23830 | 35908 ft | 423 kts | 174° |
| 2026-05-04 19:39 | -22.92886 | -51.22321 | 35909 ft | 423 kts | 174° |
| 2026-05-04 19:39 | -22.98598 | -51.20818 | 35915 ft | 422 kts | 174° |
| 2026-05-04 19:40 | -23.04314 | -51.19311 | 35934 ft | 423 kts | 174° |
| 2026-05-04 19:40 | -23.09998 | -51.17811 | 35937 ft | 423 kts | 174° |
| 2026-05-04 19:41 | -23.15713 | -51.16300 | 35953 ft | 422 kts | 174° |
| 2026-05-04 19:41 | -23.21413 | -51.14793 | 35970 ft | 422 kts | 174° |
| 2026-05-04 19:42 | -23.27127 | -51.13360 | 35954 ft | 431 kts | 165° |
| 2026-05-04 19:42 | -23.29739 | -51.11640 | 35985 ft | 450 kts | 148° |
| 2026-05-04 19:42 | -23.31927 | -51.09129 | 35975 ft | 467 kts | 133° |
| 2026-05-04 19:42 | -23.33525 | -51.05990 | 35977 ft | 483 kts | 118° |
| 2026-05-04 19:43 | -23.34402 | -51.02419 | 35966 ft | 496 kts | 103° |
| 2026-05-04 19:43 | -23.34478 | -50.98648 | 35962 ft | 506 kts | 87° |
| 2026-05-04 19:43 | -23.33729 | -50.94882 | 35959 ft | 511 kts | 72° |
| 2026-05-04 19:43 | -23.32213 | -50.91421 | 35890 ft | 501 kts | 57° |
| 2026-05-04 19:44 | -23.30061 | -50.88532 | 35777 ft | 485 kts | 40° |
| 2026-05-04 19:44 | -23.27421 | -50.86344 | 35495 ft | 471 kts | 25° |
| 2026-05-04 19:44 | -23.24462 | -50.84976 | 35144 ft | 455 kts | 8° |
| 2026-05-04 19:44 | -23.21400 | -50.84496 | 34807 ft | 435 kts | 351° |
| 2026-05-04 19:45 | -23.18510 | -50.84890 | 34480 ft | 414 kts | 335° |
| 2026-05-04 19:45 | -23.15953 | -50.86083 | 34154 ft | 390 kts | 317° |
| 2026-05-04 19:45 | -23.13936 | -50.87921 | 33612 ft | 372 kts | 302° |
| 2026-05-04 19:45 | -23.12543 | -50.90267 | 32591 ft | 368 kts | 285° |
| 2026-05-04 19:46 | -23.11929 | -50.92943 | 31678 ft | 366 kts | 269° |
| 2026-05-04 19:46 | -23.12136 | -50.95689 | 30779 ft | 368 kts | 253° |
| 2026-05-04 19:46 | -23.12709 | -50.98424 | 29872 ft | 376 kts | 261° |
| 2026-05-04 19:46 | -23.12865 | -51.01283 | 28873 ft | 384 kts | 268° |
| 2026-05-04 19:47 | -23.12670 | -51.04206 | 27897 ft | 391 kts | 275° |
| 2026-05-04 19:47 | -23.11883 | -51.07064 | 26922 ft | 405 kts | 293° |
| 2026-05-04 19:47 | -23.10097 | -51.09494 | 26012 ft | 423 kts | 314° |
| 2026-05-04 19:47 | -23.07504 | -51.11108 | 25123 ft | 440 kts | 336° |
| 2026-05-04 19:48 | -23.04494 | -51.11876 | 24289 ft | 447 kts | 345° |
| 2026-05-04 19:48 | -23.01425 | -51.12434 | 23402 ft | 444 kts | 347° |
| 2026-05-04 19:48 | -22.98414 | -51.12953 | 22404 ft | 433 kts | 347° |
| 2026-05-04 19:48 | -22.95472 | -51.13455 | 21434 ft | 423 kts | 347° |
| 2026-05-04 19:49 | -22.92598 | -51.13947 | 20527 ft | 414 kts | 347° |
| 2026-05-04 19:49 | -22.89784 | -51.14433 | 19627 ft | 405 kts | 347° |
| 2026-05-04 19:49 | -22.87057 | -51.14913 | 18769 ft | 398 kts | 347° |
| 2026-05-04 19:49 | -22.84355 | -51.15397 | 17871 ft | 390 kts | 347° |
| 2026-05-04 19:50 | -22.81704 | -51.15887 | 16912 ft | 383 kts | 347° |
| 2026-05-04 19:50 | -22.79099 | -51.16387 | 15990 ft | 377 kts | 347° |
| 2026-05-04 19:50 | -22.76541 | -51.16897 | 15094 ft | 370 kts | 347° |
| 2026-05-04 19:50 | -22.74031 | -51.17417 | 14212 ft | 364 kts | 347° |
| 2026-05-04 19:51 | -22.71567 | -51.17948 | 13289 ft | 358 kts | 347° |
| 2026-05-04 19:51 | -22.69149 | -51.18493 | 12342 ft | 352 kts | 347° |
| 2026-05-04 19:51 | -22.66769 | -51.19037 | 11424 ft | 347 kts | 346° |
| 2026-05-04 19:51 | -22.64610 | -51.20108 | 10505 ft | 343 kts | 322° |
| 2026-05-04 19:52 | -22.63134 | -51.22094 | 9609 ft | 341 kts | 296° |
| 2026-05-04 19:52 | -22.62646 | -51.24583 | 8675 ft | 341 kts | 270° |
| 2026-05-04 19:52 | -22.63247 | -51.27048 | 7762 ft | 342 kts | 244° |
| 2026-05-04 19:52 | -22.64830 | -51.28945 | 7068 ft | 341 kts | 214° |
| 2026-05-04 19:53 | -22.66980 | -51.29766 | 6938 ft | 319 kts | 189° |
| 2026-05-04 19:53 | -22.69102 | -51.29948 | 6894 ft | 294 kts | 184° |
| 2026-05-04 19:53 | -22.71059 | -51.29815 | 6873 ft | 274 kts | 161° |
| 2026-05-04 19:53 | -22.72600 | -51.28726 | 6903 ft | 266 kts | 135° |
| 2026-05-04 19:54 | -22.73953 | -51.27355 | 6908 ft | 266 kts | 135° |
| 2026-05-04 19:54 | -22.75297 | -51.25991 | 6903 ft | 264 kts | 135° |
| 2026-05-04 19:54 | -22.76628 | -51.24636 | 6894 ft | 262 kts | 135° |
| 2026-05-04 19:54 | -22.77959 | -51.23276 | 6844 ft | 266 kts | 135° |
| 2026-05-04 19:55 | -22.79321 | -51.21881 | 6638 ft | 271 kts | 135° |
| 2026-05-04 19:55 | -22.80686 | -51.20480 | 6422 ft | 268 kts | 135° |
| 2026-05-04 19:55 | -22.82009 | -51.19121 | 6190 ft | 263 kts | 135° |
| 2026-05-04 19:55 | -22.83331 | -51.17765 | 5984 ft | 260 kts | 135° |
| 2026-05-04 19:56 | -22.84649 | -51.16423 | 5752 ft | 260 kts | 137° |
| 2026-05-04 19:56 | -22.86077 | -51.15226 | 5543 ft | 260 kts | 144° |
| 2026-05-04 19:56 | -22.87581 | -51.14140 | 5335 ft | 260 kts | 146° |
| 2026-05-04 19:56 | -22.89098 | -51.13065 | 5117 ft | 260 kts | 146° |
| 2026-05-04 19:57 | -22.90618 | -51.11993 | 4898 ft | 259 kts | 146° |
| 2026-05-04 19:57 | -22.92127 | -51.10931 | 4683 ft | 258 kts | 146° |
| 2026-05-04 19:57 | -22.93626 | -51.09876 | 4457 ft | 254 kts | 146° |
| 2026-05-04 19:57 | -22.95080 | -51.08860 | 4497 ft | 245 kts | 146° |
| 2026-05-04 19:58 | -22.96519 | -51.07851 | 4498 ft | 249 kts | 146° |
| 2026-05-04 19:58 | -22.97982 | -51.06820 | 4514 ft | 253 kts | 146° |
| 2026-05-04 19:58 | -22.99464 | -51.05772 | 4508 ft | 254 kts | 146° |
| 2026-05-04 19:58 | -23.01031 | -51.04907 | 4500 ft | 258 kts | 170° |
| 2026-05-04 19:59 | -23.02867 | -51.05068 | 4763 ft | 279 kts | 198° |
| 2026-05-04 19:59 | -23.04775 | -51.05672 | 4922 ft | 291 kts | 198° |
| 2026-05-04 19:59 | -23.06724 | -51.06241 | 4927 ft | 289 kts | 196° |
| 2026-05-04 19:59 | -23.08670 | -51.06744 | 4935 ft | 286 kts | 195° |
| 2026-05-04 20:00 | -23.10619 | -51.07198 | 4933 ft | 286 kts | 193° |
| 2026-05-04 20:00 | -23.12579 | -51.07620 | 4941 ft | 288 kts | 193° |
| 2026-05-04 20:00 | -23.14544 | -51.08020 | 4911 ft | 286 kts | 192° |
| 2026-05-04 20:00 | -23.16501 | -51.08404 | 4896 ft | 287 kts | 192° |
| 2026-05-04 20:01 | -23.18447 | -51.08789 | 4897 ft | 288 kts | 192° |
| 2026-05-04 20:01 | -23.20381 | -51.09176 | 4898 ft | 275 kts | 192° |
| 2026-05-04 20:01 | -23.22202 | -51.09526 | 4894 ft | 257 kts | 192° |
| 2026-05-04 20:01 | -23.23908 | -51.09854 | 4897 ft | 241 kts | 192° |
| 2026-05-04 20:02 | -23.25542 | -51.10160 | 4898 ft | 234 kts | 192° |
| 2026-05-04 20:02 | -23.27133 | -51.10456 | 4920 ft | 231 kts | 192° |
| 2026-05-04 20:02 | -23.28712 | -51.10751 | 4908 ft | 230 kts | 191° |
| 2026-05-04 20:02 | -23.30284 | -51.11035 | 4932 ft | 229 kts | 191° |
| 2026-05-04 20:03 | -23.31865 | -51.11313 | 4927 ft | 232 kts | 191° |
| 2026-05-04 20:03 | -23.33494 | -51.11618 | 4520 ft | 244 kts | 193° |
| 2026-05-04 20:03 | -23.35162 | -51.11948 | 4059 ft | 243 kts | 193° |
| 2026-05-04 20:03 | -23.36807 | -51.12324 | 3606 ft | 240 kts | 194° |
| 2026-05-04 20:04 | -23.38430 | -51.12705 | 3155 ft | 239 kts | 197° |
| 2026-05-04 20:04 | -23.40028 | -51.13095 | 2699 ft | 238 kts | 190° |
| 2026-05-04 20:04 | -23.41499 | -51.13826 | 2479 ft | 222 kts | 220° |
| 2026-05-04 20:04 | -23.42362 | -51.15120 | 2344 ft | 209 kts | 251° |
| 2026-05-04 20:05 | -23.42466 | -51.16601 | 2337 ft | 190 kts | 285° |
| 2026-05-04 20:05 | -23.41836 | -51.17799 | 2332 ft | 185 kts | 320° |
| 2026-05-04 20:05 | -23.40685 | -51.18390 | 2359 ft | 186 kts | 356° |
| 2026-05-04 20:05 | -23.39443 | -51.18165 | 2373 ft | 181 kts | 31° |
| 2026-05-04 20:06 | -23.38521 | -51.17284 | 2398 ft | 173 kts | 45° |
| 2026-05-04 20:06 | -23.37441 | -51.16712 | 2270 ft | 185 kts | 8° |
| 2026-05-04 20:06 | -23.36196 | -51.16800 | 2357 ft | 168 kts | 352° |
| 2026-05-04 20:06 | -23.35114 | -51.17054 | 2605 ft | 154 kts | 347° |
| 2026-05-04 20:07 | -23.34195 | -51.17616 | 2955 ft | 155 kts | 321° |
| 2026-05-04 20:07 | -23.33482 | -51.18593 | 3061 ft | 184 kts | 302° |
| 2026-05-04 20:07 | -23.32873 | -51.19792 | 3337 ft | 181 kts | 301° |
| 2026-05-04 20:07 | -23.32285 | -51.21034 | 3296 ft | 190 kts | 302° |
| 2026-05-04 20:08 | -23.31374 | -51.22015 | 3314 ft | 180 kts | 345° |
| 2026-05-04 20:08 | -23.30215 | -51.21795 | 3423 ft | 189 kts | 47° |
| 2026-05-04 20:08 | -23.29931 | -51.20412 | 3501 ft | 208 kts | 105° |
| 2026-05-04 20:08 | -23.30726 | -51.18979 | 3187 ft | 231 kts | 128° |
| 2026-05-04 20:09 | -23.31807 | -51.17648 | 2649 ft | 235 kts | 128° |
| 2026-05-04 20:09 | -23.32577 | -51.16233 | 2430 ft | 215 kts | 98° |
| 2026-05-04 20:09 | -23.32732 | -51.14676 | 2101 ft | 201 kts | 102° |
| 2026-05-04 20:09 | -23.33232 | -51.13407 | 1884 ft | 172 kts | 108° |
| 2026-05-04 20:10 | -23.33544 | -51.12392 | 1832 ft | 102 kts | 115° |
| 2026-05-04 20:10 | -23.33671 | -51.12096 | 1822 ft | 5 kts | 99° |
| 2026-05-04 20:10 | -23.33672 | -51.12054 | 1820 ft | 6 kts | 110° |
| 2026-05-04 20:10 | -23.33704 | -51.12031 | 1819 ft | 6 kts | 173° |
| 2026-05-04 20:11 | -23.33738 | -51.12049 | 1819 ft | 6 kts | 229° |
| 2026-05-04 20:11 | -23.33743 | -51.12146 | 1822 ft | 16 kts | 297° |
| 2026-05-04 20:11 | -23.33673 | -51.12249 | 1826 ft | 21 kts | 310° |
| 2026-05-04 20:11 | -23.33568 | -51.12395 | 1832 ft | 28 kts | 309° |
| 2026-05-04 20:12 | -23.33421 | -51.12557 | 1837 ft | 31 kts | 312° |
| 2026-05-04 20:12 | -23.33339 | -51.12782 | 1845 ft | 33 kts | 289° |
| 2026-05-04 20:12 | -23.33257 | -51.13027 | 1853 ft | 35 kts | 289° |
| 2026-05-04 20:12 | -23.33170 | -51.13286 | 1861 ft | 37 kts | 292° |
| 2026-05-04 20:13 | -23.33080 | -51.13557 | 1870 ft | 39 kts | 292° |
| 2026-05-04 20:13 | -23.33008 | -51.13722 | 1874 ft | 6 kts | 340° |
| 2026-05-04 20:13 | -23.32980 | -51.13727 | 1876 ft | 0 kts | 341° |
| 2026-05-04 20:13 | -23.32951 | -51.13725 | 1873 ft | 0 kts | 15° |